Time;durP1;ratioP1;P1;durP2;ratioP2;P2;SDS_P1;SDS_P2;PMS_P1;PMS_P2;Temp;Humidity;BMP_temperature;BMP_pressure;BME280_temperature;BME280_humidity;BME280_pressure;Samples;Min_cycle;Max_cycle;Signal;HPM_P1;HPM_P2
2023/05/07 00:01:14;;;;;;;0.80;0.70;;;;;;;;;;5069097;28;20195;-59
2023/05/07 00:03:41;;;;;;;0.50;0.50;;;;;;;;;;5069027;28;20370;-60
2023/05/07 00:06:09;;;;;;;1.50;0.60;;;;;;;;;;5068329;28;20211;-60
2023/05/07 00:08:37;;;;;;;0.60;0.60;;;;;;;;;;5068225;28;20774;-60
2023/05/07 00:11:04;;;;;;;0.40;0.40;;;;;;;;;;5068823;28;20207;-60
2023/05/07 00:13:35;;;;;;;0.75;0.60;;;;;;;;;;5067962;28;20211;-60
2023/05/07 00:16:02;;;;;;;1.45;0.80;;;;;;;;;;5067605;28;20214;-59
2023/05/07 00:18:29;;;;;;;0.50;0.50;;;;;;;;;;5068752;28;20199;-60
2023/05/07 00:20:56;;;;;;;1.35;0.80;;;;;;;;;;5068318;28;20211;-60
2023/05/07 00:23:23;;;;;;;0.63;0.63;;;;;;;;;;5067606;28;20281;-60
2023/05/07 00:25:50;;;;;;;0.50;0.50;;;;;;;;;;5064910;28;20203;-59
2023/05/07 00:28:17;;;;;;;0.50;0.50;;;;;;;;;;5067913;28;20269;-59
2023/05/07 00:30:45;;;;;;;0.50;0.50;;;;;;;;;;5068272;28;20864;-60
2023/05/07 00:33:12;;;;;;;0.60;0.60;;;;;;;;;;5068133;28;20289;-60
2023/05/07 00:35:39;;;;;;;0.60;0.60;;;;;;;;;;5068334;28;20676;-60
2023/05/07 00:38:06;;;;;;;1.67;0.90;;;;;;;;;;5067823;28;20223;-60
2023/05/07 00:40:33;;;;;;;0.60;0.60;;;;;;;;;;5068039;28;20776;-60
2023/05/07 00:43:00;;;;;;;0.80;0.80;;;;;;;;;;5067955;28;20306;-60
2023/05/07 00:45:28;;;;;;;0.60;0.60;;;;;;;;;;5067976;28;20237;-60
2023/05/07 00:47:58;;;;;;;0.52;0.52;;;;;;;;;;5068298;28;20310;-60
2023/05/07 00:50:26;;;;;;;0.60;0.60;;;;;;;;;;5066722;28;20230;-60
2023/05/07 00:52:53;;;;;;;1.05;0.70;;;;;;;;;;5068128;28;20219;-60
2023/05/07 00:55:20;;;;;;;0.50;0.50;;;;;;;;;;5067291;28;20207;-60
2023/05/07 00:57:47;;;;;;;0.60;0.60;;;;;;;;;;5066257;28;20888;-60
2023/05/07 01:00:15;;;;;;;0.52;0.52;;;;;;;;;;5065518;28;20268;-60
2023/05/07 01:02:42;;;;;;;0.60;0.60;;;;;;;;;;5061996;28;20199;-60
2023/05/07 01:05:11;;;;;;;0.60;0.60;;;;;;;;;;5066896;28;20264;-59
2023/05/07 01:07:39;;;;;;;0.60;0.60;;;;;;;;;;5065002;28;20689;-59
2023/05/07 01:10:06;;;;;;;0.50;0.50;;;;;;;;;;5067237;28;20670;-60
2023/05/07 01:12:34;;;;;;;0.60;0.60;;;;;;;;;;5066860;28;20250;-60
2023/05/07 01:15:01;;;;;;;0.80;0.80;;;;;;;;;;5068188;28;20260;-60
2023/05/07 01:17:28;;;;;;;0.77;0.77;;;;;;;;;;5066718;28;20195;-60
2023/05/07 01:19:55;;;;;;;0.60;0.60;;;;;;;;;;5066855;28;20265;-59
2023/05/07 01:22:31;;;;;;;0.50;0.50;;;;;;;;;;5067044;28;20207;-60
2023/05/07 01:24:59;;;;;;;0.60;0.60;;;;;;;;;;5061869;28;20226;-60
2023/05/07 01:27:26;;;;;;;0.70;0.70;;;;;;;;;;5066780;28;20800;-60
2023/05/07 01:29:53;;;;;;;0.98;0.80;;;;;;;;;;5066599;28;20204;-60
2023/05/07 01:32:23;;;;;;;0.60;0.60;;;;;;;;;;5058687;28;20371;-60
2023/05/07 01:34:50;;;;;;;0.70;0.70;;;;;;;;;;5066768;28;20738;-60
2023/05/07 01:37:18;;;;;;;0.63;0.63;;;;;;;;;;5067650;28;20618;-60
2023/05/07 01:39:46;;;;;;;0.75;0.75;;;;;;;;;;5066979;28;20257;-60
2023/05/07 01:42:13;;;;;;;0.75;0.75;;;;;;;;;;5066763;28;20302;-60
2023/05/07 01:44:40;;;;;;;0.88;0.65;;;;;;;;;;5066081;28;20215;-59
2023/05/07 01:47:07;;;;;;;1.35;0.70;;;;;;;;;;5066178;28;20199;-60
2023/05/07 01:49:34;;;;;;;0.80;0.80;;;;;;;;;;5065613;28;20244;-60
2023/05/07 01:52:01;;;;;;;1.10;0.73;;;;;;;;;;5065750;28;20235;-61
2023/05/07 01:54:29;;;;;;;0.55;0.55;;;;;;;;;;5066168;28;20626;-60
2023/05/07 01:56:58;;;;;;;0.60;0.60;;;;;;;;;;5065739;28;20203;-60
2023/05/07 01:59:25;;;;;;;0.55;0.55;;;;;;;;;;5066192;28;20264;-60
2023/05/07 02:01:52;;;;;;;0.75;0.75;;;;;;;;;;5065744;28;20256;-59
2023/05/07 02:04:19;;;;;;;0.70;0.70;;;;;;;;;;5066217;28;20318;-60
2023/05/07 02:06:46;;;;;;;0.70;0.70;;;;;;;;;;5065094;28;20261;-60
2023/05/07 02:09:14;;;;;;;0.73;0.73;;;;;;;;;;5065818;28;20207;-60
2023/05/07 02:11:41;;;;;;;1.00;0.75;;;;;;;;;;5065276;28;20217;-60
2023/05/07 02:14:10;;;;;;;0.98;0.85;;;;;;;;;;5065034;28;20207;-60
2023/05/07 02:16:37;;;;;;;1.17;0.70;;;;;;;;;;5065406;28;20210;-60
2023/05/07 02:19:05;;;;;;;0.70;0.70;;;;;;;;;;5065430;28;20257;-60
2023/05/07 02:21:32;;;;;;;0.73;0.73;;;;;;;;;;5064412;28;20568;-59
2023/05/07 02:23:59;;;;;;;1.98;0.80;;;;;;;;;;5065019;28;20276;-60
2023/05/07 02:26:26;;;;;;;0.75;0.75;;;;;;;;;;5065348;28;20657;-59
2023/05/07 02:28:53;;;;;;;0.80;0.77;;;;;;;;;;5065254;28;20217;-59
2023/05/07 02:31:21;;;;;;;0.85;0.70;;;;;;;;;;5064646;28;20206;-60
2023/05/07 02:33:49;;;;;;;0.88;0.88;;;;;;;;;;5064717;28;20284;-59
2023/05/07 02:36:16;;;;;;;1.05;0.80;;;;;;;;;;5064896;28;20207;-60
2023/05/07 02:38:43;;;;;;;0.75;0.75;;;;;;;;;;5054429;28;20214;-60
2023/05/07 02:41:10;;;;;;;0.70;0.70;;;;;;;;;;5053859;28;20300;-60
2023/05/07 02:43:37;;;;;;;1.38;0.70;;;;;;;;;;5064528;28;20199;-60
2023/05/07 02:46:04;;;;;;;0.68;0.68;;;;;;;;;;5054813;28;20653;-60
2023/05/07 02:48:33;;;;;;;0.70;0.70;;;;;;;;;;5065096;28;20211;-60
2023/05/07 02:51:00;;;;;;;1.00;0.70;;;;;;;;;;5064593;28;20215;-59
2023/05/07 02:53:27;;;;;;;1.10;1.00;;;;;;;;;;5064720;28;20237;-60
2023/05/07 02:55:54;;;;;;;0.80;0.80;;;;;;;;;;5064276;28;20945;-60
2023/05/07 02:58:21;;;;;;;0.98;0.98;;;;;;;;;;5064138;28;20211;-60
2023/05/07 03:00:49;;;;;;;1.85;0.80;;;;;;;;;;5064489;28;20253;-59
2023/05/07 03:03:16;;;;;;;2.53;0.93;;;;;;;;;;5064578;28;20195;-59
2023/05/07 03:05:45;;;;;;;1.17;0.80;;;;;;;;;;5064896;28;20673;-60
2023/05/07 03:08:12;;;;;;;0.88;0.88;;;;;;;;;;5064720;28;20279;-60
2023/05/07 03:10:39;;;;;;;0.90;0.90;;;;;;;;;;5064755;28;20202;-59
2023/05/07 03:13:06;;;;;;;0.90;0.90;;;;;;;;;;5063885;28;20990;-59
2023/05/07 03:15:33;;;;;;;1.40;1.30;;;;;;;;;;5064531;28;20199;-59
2023/05/07 03:18:00;;;;;;;0.80;0.80;;;;;;;;;;5067232;28;20195;-60
2023/05/07 03:20:27;;;;;;;1.20;1.20;;;;;;;;;;5069348;28;20203;-59
2023/05/07 03:22:55;;;;;;;0.70;0.70;;;;;;;;;;5068436;28;20607;-60
2023/05/07 03:25:23;;;;;;;0.70;0.70;;;;;;;;;;5069041;28;20202;-59
2023/05/07 03:27:50;;;;;;;0.88;0.88;;;;;;;;;;5068495;28;20211;-59
2023/05/07 03:30:17;;;;;;;0.90;0.90;;;;;;;;;;5068961;28;20226;-59
2023/05/07 03:32:44;;;;;;;0.80;0.80;;;;;;;;;;5068875;28;20226;-60
2023/05/07 03:35:11;;;;;;;1.80;0.95;;;;;;;;;;5068840;28;20195;-59
2023/05/07 03:37:38;;;;;;;0.70;0.70;;;;;;;;;;5068527;28;20208;-59
2023/05/07 03:40:07;;;;;;;0.90;0.90;;;;;;;;;;5067722;28;20233;-60
2023/05/07 03:42:34;;;;;;;2.03;0.80;;;;;;;;;;5069097;28;20195;-59
2023/05/07 03:45:01;;;;;;;0.90;0.90;;;;;;;;;;5068316;28;20211;-59
2023/05/07 03:47:28;;;;;;;1.75;0.75;;;;;;;;;;5068663;28;20199;-60
2023/05/07 03:49:55;;;;;;;0.70;0.70;;;;;;;;;;5068095;28;20195;-60
2023/05/07 03:52:25;;;;;;;1.13;0.95;;;;;;;;;;5068420;28;20231;-59
2023/05/07 03:54:52;;;;;;;0.90;0.90;;;;;;;;;;5061378;28;20694;-60
2023/05/07 03:57:21;;;;;;;0.80;0.80;;;;;;;;;;5068471;28;20219;-59
2023/05/07 03:59:48;;;;;;;0.70;0.70;;;;;;;;;;5068802;28;20202;-60
2023/05/07 04:02:15;;;;;;;2.08;0.88;;;;;;;;;;5068214;28;20218;-60
2023/05/07 04:04:42;;;;;;;1.10;1.10;;;;;;;;;;5067730;28;20276;-60
2023/05/07 04:07:09;;;;;;;0.82;0.82;;;;;;;;;;5068310;28;20252;-60
2023/05/07 04:09:36;;;;;;;1.25;0.98;;;;;;;;;;5067135;28;20264;-59
2023/05/07 04:12:04;;;;;;;0.90;0.90;;;;;;;;;;5068878;28;20292;-60
2023/05/07 04:14:32;;;;;;;0.88;0.88;;;;;;;;;;5068370;28;20214;-60
2023/05/07 04:16:59;;;;;;;0.90;0.90;;;;;;;;;;5068491;28;20759;-59
2023/05/07 04:19:27;;;;;;;2.95;1.00;;;;;;;;;;5067705;28;20920;-59
2023/05/07 04:21:54;;;;;;;1.25;1.00;;;;;;;;;;5067882;28;20199;-60
2023/05/07 04:24:21;;;;;;;1.48;1.10;;;;;;;;;;5068256;28;20223;-60
2023/05/07 04:26:48;;;;;;;1.20;0.95;;;;;;;;;;5067690;28;20215;-59
2023/05/07 04:29:15;;;;;;;1.63;0.90;;;;;;;;;;5067695;28;20906;-60
2023/05/07 04:31:44;;;;;;;0.70;0.70;;;;;;;;;;5066642;28;20207;-59
2023/05/07 04:34:11;;;;;;;0.82;0.82;;;;;;;;;;5067951;28;20822;-59
2023/05/07 04:36:39;;;;;;;1.05;1.05;;;;;;;;;;5067458;28;20619;-60
2023/05/07 04:39:06;;;;;;;0.88;0.88;;;;;;;;;;5066958;28;20572;-60
2023/05/07 04:41:33;;;;;;;0.90;0.90;;;;;;;;;;5068352;28;20235;-60
2023/05/07 04:44:00;;;;;;;1.00;1.00;;;;;;;;;;5068057;28;20672;-59
2023/05/07 04:46:27;;;;;;;0.90;0.90;;;;;;;;;;5068329;28;20260;-59
2023/05/07 04:48:56;;;;;;;0.90;0.90;;;;;;;;;;5067663;28;20249;-60
2023/05/07 04:51:23;;;;;;;1.00;0.85;;;;;;;;;;5067159;28;20272;-60
2023/05/07 04:53:50;;;;;;;0.80;0.80;;;;;;;;;;5067447;28;20231;-59
2023/05/07 04:56:17;;;;;;;0.60;0.60;;;;;;;;;;5067659;28;20222;-59
2023/05/07 04:58:44;;;;;;;3.63;0.98;;;;;;;;;;5066775;28;20277;-59
2023/05/07 05:01:11;;;;;;;0.60;0.60;;;;;;;;;;5065183;28;20200;-59
2023/05/07 05:03:39;;;;;;;1.85;1.10;;;;;;;;;;5067643;28;20234;-59
2023/05/07 05:06:07;;;;;;;0.82;0.82;;;;;;;;;;5067065;28;20245;-59
2023/05/07 05:08:34;;;;;;;1.08;1.00;;;;;;;;;;5065699;28;20195;-60
2023/05/07 05:11:02;;;;;;;1.27;1.20;;;;;;;;;;5067428;28;20887;-59
2023/05/07 05:13:30;;;;;;;1.25;0.75;;;;;;;;;;5066750;28;20218;-60
2023/05/07 05:15:57;;;;;;;0.70;0.70;;;;;;;;;;5067388;28;20736;-59
2023/05/07 05:18:24;;;;;;;0.95;0.95;;;;;;;;;;5067640;28;20207;-60
2023/05/07 05:20:52;;;;;;;0.77;0.77;;;;;;;;;;5067033;28;20669;-60
2023/05/07 05:23:21;;;;;;;0.88;0.88;;;;;;;;;;5066628;28;20648;-62
2023/05/07 05:25:48;;;;;;;1.08;0.88;;;;;;;;;;5067438;28;20588;-60
2023/05/07 05:28:15;;;;;;;0.93;0.80;;;;;;;;;;5067580;28;20207;-60
2023/05/07 05:30:42;;;;;;;1.27;1.00;;;;;;;;;;5067476;28;20206;-61
2023/05/07 05:33:09;;;;;;;3.20;0.90;;;;;;;;;;5067484;28;20956;-61
2023/05/07 05:35:36;;;;;;;0.82;0.80;;;;;;;;;;5067091;28;20211;-60
2023/05/07 05:38:03;;;;;;;1.13;1.00;;;;;;;;;;5067071;28;20202;-60
2023/05/07 05:40:31;;;;;;;0.80;0.80;;;;;;;;;;5066867;28;20258;-60
2023/05/07 05:42:58;;;;;;;1.05;1.05;;;;;;;;;;5066418;28;20202;-60
2023/05/07 05:45:26;;;;;;;1.30;1.23;;;;;;;;;;5067246;28;20257;-61
2023/05/07 05:47:53;;;;;;;1.00;1.00;;;;;;;;;;5057485;28;20203;-58
2023/05/07 05:50:20;;;;;;;2.67;0.70;;;;;;;;;;5067629;28;20570;-59
2023/05/07 05:52:47;;;;;;;1.10;1.10;;;;;;;;;;5067662;28;20211;-59
2023/05/07 05:55:14;;;;;;;1.17;1.17;;;;;;;;;;5066896;28;20207;-59
2023/05/07 05:57:42;;;;;;;0.98;0.98;;;;;;;;;;5067597;28;20416;-59
2023/05/07 06:00:10;;;;;;;1.15;0.95;;;;;;;;;;5067154;28;20703;-58
2023/05/07 06:02:37;;;;;;;0.93;0.93;;;;;;;;;;5066677;28;20260;-59
2023/05/07 06:05:04;;;;;;;1.05;1.05;;;;;;;;;;5066679;28;20203;-58
2023/05/07 06:07:31;;;;;;;0.85;0.85;;;;;;;;;;5066638;28;20309;-58
2023/05/07 06:09:58;;;;;;;1.75;1.05;;;;;;;;;;5063778;28;20213;-58
2023/05/07 06:12:26;;;;;;;5.00;1.10;;;;;;;;;;5047698;28;20257;-59
2023/05/07 06:14:54;;;;;;;1.17;1.17;;;;;;;;;;5066747;28;20257;-59
2023/05/07 06:17:21;;;;;;;0.80;0.80;;;;;;;;;;5066871;28;20552;-58
2023/05/07 06:19:48;;;;;;;1.48;0.90;;;;;;;;;;5066495;28;20260;-59
2023/05/07 06:22:15;;;;;;;1.02;1.00;;;;;;;;;;5067151;28;20210;-58
2023/05/07 06:24:42;;;;;;;0.90;0.90;;;;;;;;;;5066642;28;20257;-58
2023/05/07 06:27:09;;;;;;;1.75;0.90;;;;;;;;;;5065150;28;20836;-59
2023/05/07 06:29:36;;;;;;;1.00;1.00;;;;;;;;;;5066884;28;20217;-58
2023/05/07 06:32:11;;;;;;;1.60;1.50;;;;;;;;;;5066678;28;20214;-58
2023/05/07 06:34:38;;;;;;;1.05;1.05;;;;;;;;;;5065264;28;20279;-58
2023/05/07 06:37:06;;;;;;;1.00;1.00;;;;;;;;;;5067134;28;20672;-58
2023/05/07 06:39:33;;;;;;;0.82;0.82;;;;;;;;;;5066811;28;20263;-59
2023/05/07 06:42:01;;;;;;;1.00;1.00;;;;;;;;;;5066932;28;20242;-58
2023/05/07 06:44:28;;;;;;;1.15;1.15;;;;;;;;;;5066061;28;20252;-58
2023/05/07 06:46:55;;;;;;;1.00;1.00;;;;;;;;;;5071616;28;20278;-58
2023/05/07 06:49:23;;;;;;;1.10;1.10;;;;;;;;;;5076491;28;20583;-59
2023/05/07 06:51:50;;;;;;;1.00;1.00;;;;;;;;;;5065949;28;20661;-57
2023/05/07 06:54:17;;;;;;;1.13;1.00;;;;;;;;;;5076244;28;20275;-58
2023/05/07 06:56:45;;;;;;;1.00;1.00;;;;;;;;;;5065369;28;20890;-58
2023/05/07 06:59:12;;;;;;;0.90;0.90;;;;;;;;;;5069200;28;20211;-57
2023/05/07 07:01:39;;;;;;;1.42;1.33;;;;;;;;;;5069549;28;20199;-57
2023/05/07 07:04:06;;;;;;;1.30;1.20;;;;;;;;;;5068991;28;20199;-57
2023/05/07 07:06:34;;;;;;;0.88;0.88;;;;;;;;;;5067936;28;20215;-56
2023/05/07 07:09:01;;;;;;;1.80;1.70;;;;;;;;;;5069587;28;20215;-55
2023/05/07 07:11:28;;;;;;;0.68;0.68;;;;;;;;;;5069404;28;20203;-56
2023/05/07 07:13:56;;;;;;;1.02;1.02;;;;;;;;;;5069060;28;20720;-58
2023/05/07 07:16:23;;;;;;;1.00;1.00;;;;;;;;;;5069674;28;20222;-58
2023/05/07 07:18:50;;;;;;;0.77;0.77;;;;;;;;;;5069145;28;20211;-58
2023/05/07 07:21:17;;;;;;;1.33;0.95;;;;;;;;;;5069756;28;20211;-57
2023/05/07 07:23:45;;;;;;;1.20;1.20;;;;;;;;;;5069463;28;20215;-57
2023/05/07 07:26:12;;;;;;;1.30;1.20;;;;;;;;;;5069539;28;20219;-57
2023/05/07 07:28:43;;;;;;;1.20;1.20;;;;;;;;;;5071381;28;20214;-57
2023/05/07 07:31:10;;;;;;;1.17;1.17;;;;;;;;;;5078577;28;20230;-57
2023/05/07 07:33:37;;;;;;;1.65;1.42;;;;;;;;;;5068903;28;20226;-57
2023/05/07 07:36:05;;;;;;;1.70;1.60;;;;;;;;;;5086844;28;20263;-58
2023/05/07 07:38:32;;;;;;;1.02;1.02;;;;;;;;;;5071291;28;20214;-58
2023/05/07 07:41:01;;;;;;;1.13;1.13;;;;;;;;;;5068707;28;20238;-58
2023/05/07 07:43:28;;;;;;;11.45;6.57;;;;;;;;;;5069251;28;20222;-57
2023/05/07 07:45:55;;;;;;;0.98;0.98;;;;;;;;;;5068948;28;20306;-58
2023/05/07 07:48:22;;;;;;;1.00;1.00;;;;;;;;;;5068853;28;20218;-58
2023/05/07 07:50:50;;;;;;;1.40;1.30;;;;;;;;;;5074136;28;20297;-58
2023/05/07 07:53:17;;;;;;;1.23;1.23;;;;;;;;;;5068548;28;20209;-60
2023/05/07 07:55:44;;;;;;;1.23;1.23;;;;;;;;;;5068290;28;20276;-58
2023/05/07 07:58:13;;;;;;;1.60;1.50;;;;;;;;;;5068140;28;20203;-58
2023/05/07 08:00:40;;;;;;;1.63;1.52;;;;;;;;;;5068505;28;20203;-58
2023/05/07 08:03:07;;;;;;;0.82;0.82;;;;;;;;;;5067614;28;20674;-62
2023/05/07 08:05:34;;;;;;;1.33;1.33;;;;;;;;;;5067885;28;20203;-58
2023/05/07 08:08:01;;;;;;;1.20;1.20;;;;;;;;;;5066152;28;20211;-58
2023/05/07 08:10:28;;;;;;;1.42;1.42;;;;;;;;;;5065528;28;20199;-58
2023/05/07 08:12:55;;;;;;;1.60;1.60;;;;;;;;;;5066373;28;20650;-57
2023/05/07 08:15:23;;;;;;;1.30;1.30;;;;;;;;;;5065814;28;20227;-59
2023/05/07 08:17:50;;;;;;;1.02;1.02;;;;;;;;;;5067046;28;20207;-60
2023/05/07 08:20:17;;;;;;;1.63;1.63;;;;;;;;;;5068012;28;20215;-59
2023/05/07 08:22:45;;;;;;;1.27;1.27;;;;;;;;;;5067239;28;20234;-60
2023/05/07 08:25:12;;;;;;;1.40;1.30;;;;;;;;;;5067884;28;20213;-60
2023/05/07 08:27:39;;;;;;;1.00;1.00;;;;;;;;;;5067456;28;20614;-59
2023/05/07 08:30:06;;;;;;;1.13;1.13;;;;;;;;;;5067519;28;20210;-59
2023/05/07 08:32:35;;;;;;;1.20;1.20;;;;;;;;;;5067510;28;20249;-59
2023/05/07 08:35:02;;;;;;;1.10;1.10;;;;;;;;;;5067447;28;20251;-60
2023/05/07 08:37:29;;;;;;;2.00;1.50;;;;;;;;;;5067602;28;20584;-59
2023/05/07 08:39:56;;;;;;;1.60;1.60;;;;;;;;;;5065464;28;20243;-57
2023/05/07 08:42:24;;;;;;;1.17;1.17;;;;;;;;;;5067199;28;20618;-57
2023/05/07 08:44:54;;;;;;;1.60;1.60;;;;;;;;;;5067507;28;20798;-57
2023/05/07 08:47:24;;;;;;;1.05;1.05;;;;;;;;;;5067317;28;20739;-58
2023/05/07 08:49:52;;;;;;;1.65;1.65;;;;;;;;;;5067776;28;20211;-58
2023/05/07 08:52:20;;;;;;;1.50;1.50;;;;;;;;;;5067713;28;20210;-58
2023/05/07 08:54:47;;;;;;;1.42;1.38;;;;;;;;;;5067658;28;20226;-58
2023/05/07 08:57:14;;;;;;;1.40;1.30;;;;;;;;;;5067734;28;20253;-58
2023/05/07 08:59:41;;;;;;;1.77;1.50;;;;;;;;;;5064901;28;20272;-58
2023/05/07 09:02:10;;;;;;;1.42;1.40;;;;;;;;;;5065454;28;20215;-58
2023/05/07 09:04:37;;;;;;;1.33;1.33;;;;;;;;;;5065758;28;20215;-58
2023/05/07 09:07:06;;;;;;;1.38;1.38;;;;;;;;;;5066975;28;20264;-58
2023/05/07 09:09:33;;;;;;;1.52;1.42;;;;;;;;;;5067248;28;20287;-58
2023/05/07 09:12:01;;;;;;;3.38;1.80;;;;;;;;;;5067289;28;20203;-58
2023/05/07 09:14:29;;;;;;;1.48;1.48;;;;;;;;;;5066687;28;20623;-58
2023/05/07 09:16:56;;;;;;;1.48;1.48;;;;;;;;;;5065487;28;20219;-58
2023/05/07 09:19:24;;;;;;;1.52;1.42;;;;;;;;;;5067703;28;20211;-58
2023/05/07 09:21:51;;;;;;;1.42;1.42;;;;;;;;;;5067304;28;20834;-59
2023/05/07 09:24:19;;;;;;;1.40;1.40;;;;;;;;;;5067314;28;20222;-58
2023/05/07 09:26:46;;;;;;;1.45;1.45;;;;;;;;;;5066982;28;20292;-58
2023/05/07 09:29:13;;;;;;;0.95;0.95;;;;;;;;;;5067319;28;20219;-58
2023/05/07 09:31:40;;;;;;;1.40;1.30;;;;;;;;;;5067177;28;20618;-60
2023/05/07 09:34:07;;;;;;;1.42;1.42;;;;;;;;;;5067171;28;20216;-58
2023/05/07 09:36:35;;;;;;;1.75;1.65;;;;;;;;;;5067157;28;20346;-58
2023/05/07 09:39:02;;;;;;;1.45;1.45;;;;;;;;;;5067346;28;20268;-58
2023/05/07 09:41:31;;;;;;;2.20;1.52;;;;;;;;;;5066957;28;20251;-58
2023/05/07 09:44:00;;;;;;;1.60;1.60;;;;;;;;;;5067084;28;20709;-58
2023/05/07 09:46:29;;;;;;;1.85;1.75;;;;;;;;;;5067001;28;20211;-58
2023/05/07 09:48:58;;;;;;;1.60;1.60;;;;;;;;;;5066841;28;20215;-58
2023/05/07 09:51:27;;;;;;;1.45;1.45;;;;;;;;;;5066642;28;20206;-58
2023/05/07 09:53:54;;;;;;;1.70;1.70;;;;;;;;;;5066935;28;20249;-58
2023/05/07 09:56:22;;;;;;;1.73;1.73;;;;;;;;;;5067419;28;20214;-58
2023/05/07 09:58:51;;;;;;;1.80;1.80;;;;;;;;;;5067324;28;20211;-58
2023/05/07 10:01:21;;;;;;;1.77;1.67;;;;;;;;;;5067418;28;20207;-58
2023/05/07 10:03:50;;;;;;;1.63;1.55;;;;;;;;;;5067211;28;20237;-58
2023/05/07 10:06:17;;;;;;;1.80;1.70;;;;;;;;;;5066742;28;20630;-59
2023/05/07 10:08:44;;;;;;;1.52;1.52;;;;;;;;;;5067245;28;20211;-59
2023/05/07 10:11:11;;;;;;;2.45;1.90;;;;;;;;;;5067169;28;20214;-59
2023/05/07 10:13:38;;;;;;;1.88;1.88;;;;;;;;;;5067411;28;20464;-58
2023/05/07 10:16:07;;;;;;;1.52;1.52;;;;;;;;;;5067248;28;20448;-59
2023/05/07 10:18:34;;;;;;;1.58;1.58;;;;;;;;;;5067128;28;20633;-58
2023/05/07 10:21:03;;;;;;;3.65;1.80;;;;;;;;;;5066921;28;20861;-58
2023/05/07 10:23:33;;;;;;;1.33;1.33;;;;;;;;;;5066897;28;20223;-58
2023/05/07 10:26:00;;;;;;;1.80;1.80;;;;;;;;;;5066836;28;20218;-58
2023/05/07 10:28:28;;;;;;;1.80;1.70;;;;;;;;;;5067010;28;20681;-59
2023/05/07 10:31:02;;;;;;;2.03;1.90;;;;;;;;;;5067099;28;20260;-59
2023/05/07 10:33:31;;;;;;;1.75;1.75;;;;;;;;;;5066951;28;20207;-58
2023/05/07 10:36:00;;;;;;;1.63;1.63;;;;;;;;;;5066767;28;20774;-58
2023/05/07 10:38:27;;;;;;;1.73;1.63;;;;;;;;;;5066804;28;20210;-59
2023/05/07 10:40:54;;;;;;;2.00;1.90;;;;;;;;;;5066737;28;20651;-58
2023/05/07 10:43:21;;;;;;;2.17;2.08;;;;;;;;;;5066066;28;20230;-58
2023/05/07 10:46:03;;;;;;;1.90;1.80;;;;;;;;;;5066268;28;20214;-58
2023/05/07 10:48:32;;;;;;;1.80;1.70;;;;;;;;;;5065293;28;20731;-59
2023/05/07 10:51:18;;;;;;;1.92;1.73;;;;;;;;;;5066090;28;20206;-59
2023/05/07 10:53:45;;;;;;;2.20;2.10;;;;;;;;;;5066088;28;20223;-58
2023/05/07 10:56:30;;;;;;;2.90;1.83;;;;;;;;;;5066019;28;20239;-60
2023/05/07 10:58:57;;;;;;;1.67;1.67;;;;;;;;;;5066308;28;20217;-58
2023/05/07 11:01:43;;;;;;;1.50;1.50;;;;;;;;;;5066153;28;20210;-58
2023/05/07 11:04:24;;;;;;;1.10;1.10;;;;;;;;;;5065922;28;20210;-58
2023/05/07 11:07:06;;;;;;;3.22;1.50;;;;;;;;;;5065959;28;20405;-58
2023/05/07 11:09:47;;;;;;;1.27;1.27;;;;;;;;;;5065677;28;20205;-58
2023/05/07 11:12:15;;;;;;;1.60;1.60;;;;;;;;;;5065330;28;20250;-58
2023/05/07 11:14:45;;;;;;;1.48;1.40;;;;;;;;;;5065812;28;20235;-58
2023/05/07 11:17:12;;;;;;;1.45;1.45;;;;;;;;;;5065796;28;20219;-58
2023/05/07 11:19:53;;;;;;;1.60;1.58;;;;;;;;;;5065660;28;20615;-59
2023/05/07 11:22:36;;;;;;;1.45;1.45;;;;;;;;;;5065960;28;20214;-58
2023/05/07 11:25:05;;;;;;;1.33;1.23;;;;;;;;;;5062986;28;20207;-58
2023/05/07 11:27:32;;;;;;;1.70;1.60;;;;;;;;;;5063363;28;20218;-58
2023/05/07 11:30:00;;;;;;;1.45;1.45;;;;;;;;;;5064275;28;20609;-58
2023/05/07 11:32:28;;;;;;;1.85;1.73;;;;;;;;;;5065288;28;20597;-59
2023/05/07 11:34:57;;;;;;;1.30;1.30;;;;;;;;;;5064799;28;20653;-58
2023/05/07 11:37:26;;;;;;;0.93;0.93;;;;;;;;;;5064162;28;20830;-58
2023/05/07 11:40:03;;;;;;;1.25;1.25;;;;;;;;;;5066653;28;20234;-58
2023/05/07 11:42:31;;;;;;;1.10;1.10;;;;;;;;;;5068663;28;20209;-59
2023/05/07 11:45:22;;;;;;;1.15;1.10;;;;;;;;;;5067799;28;20199;-59
2023/05/07 11:47:49;;;;;;;1.20;1.20;;;;;;;;;;5047583;28;20199;-59
2023/05/07 11:50:21;;;;;;;0.90;0.90;;;;;;;;;;5069828;28;20199;-58
2023/05/07 11:52:52;;;;;;;0.90;0.90;;;;;;;;;;5071131;28;20282;-60
2023/05/07 11:55:21;;;;;;;2.55;0.73;;;;;;;;;;5067842;28;20229;-58
2023/05/07 11:57:48;;;;;;;0.70;0.70;;;;;;;;;;5077504;28;20731;-59
2023/05/07 12:00:17;;;;;;;0.80;0.80;;;;;;;;;;5069577;28;20267;-58
2023/05/07 12:02:45;;;;;;;1.00;1.00;;;;;;;;;;5070148;28;20296;-59
2023/05/07 12:05:12;;;;;;;1.08;0.95;;;;;;;;;;5067641;28;20199;-59
2023/05/07 12:07:40;;;;;;;1.08;1.08;;;;;;;;;;5069732;28;20272;-58
2023/05/07 12:10:08;;;;;;;1.00;1.00;;;;;;;;;;5069552;28;20211;-58
2023/05/07 12:12:39;;;;;;;0.75;0.75;;;;;;;;;;5069644;28;20203;-58
2023/05/07 12:15:07;;;;;;;1.25;0.95;;;;;;;;;;5067840;28;20230;-59
2023/05/07 12:17:34;;;;;;;1.02;1.02;;;;;;;;;;5069519;28;20203;-59
2023/05/07 12:20:02;;;;;;;1.10;1.10;;;;;;;;;;5069423;28;20253;-58
2023/05/07 12:22:29;;;;;;;0.90;0.90;;;;;;;;;;5063337;28;20203;-59
2023/05/07 12:24:59;;;;;;;1.10;1.10;;;;;;;;;;5064512;28;20214;-60
2023/05/07 12:27:27;;;;;;;1.02;0.95;;;;;;;;;;5067372;28;20696;-59
2023/05/07 12:29:54;;;;;;;1.10;1.10;;;;;;;;;;5069230;28;20203;-60
2023/05/07 12:32:22;;;;;;;0.80;0.80;;;;;;;;;;5069057;28;20597;-58
2023/05/07 12:34:51;;;;;;;1.20;1.20;;;;;;;;;;5068913;28;20230;-58
2023/05/07 12:37:24;;;;;;;1.23;1.02;;;;;;;;;;5066053;28;20218;-59
2023/05/07 12:39:51;;;;;;;0.80;0.80;;;;;;;;;;5067820;28;20214;-60
2023/05/07 12:42:23;;;;;;;1.25;1.15;;;;;;;;;;5068477;28;20210;-61
2023/05/07 12:44:50;;;;;;;1.45;0.90;;;;;;;;;;5069416;28;20210;-60
2023/05/07 12:47:18;;;;;;;0.82;0.82;;;;;;;;;;5068406;28;20218;-60
2023/05/07 12:49:45;;;;;;;1.17;1.17;;;;;;;;;;5062564;28;20257;-62
2023/05/07 12:52:12;;;;;;;1.02;1.02;;;;;;;;;;5067146;28;20207;-60
2023/05/07 12:54:40;;;;;;;0.75;0.75;;;;;;;;;;5068805;28;20206;-60
2023/05/07 12:57:07;;;;;;;0.75;0.75;;;;;;;;;;5066608;28;20987;-59
2023/05/07 12:59:37;;;;;;;0.70;0.70;;;;;;;;;;5062206;28;20870;-60
2023/05/07 13:02:04;;;;;;;0.73;0.73;;;;;;;;;;5062752;28;20203;-60
2023/05/07 13:04:35;;;;;;;0.70;0.70;;;;;;;;;;5063542;28;20218;-61
2023/05/07 13:07:02;;;;;;;0.80;0.80;;;;;;;;;;5067868;28;20203;-58
2023/05/07 13:09:29;;;;;;;0.80;0.80;;;;;;;;;;5062105;28;20260;-58
2023/05/07 13:11:59;;;;;;;1.25;0.90;;;;;;;;;;5062959;28;20639;-60
2023/05/07 13:14:26;;;;;;;1.10;1.10;;;;;;;;;;5068005;28;20226;-60
2023/05/07 13:16:55;;;;;;;0.60;0.60;;;;;;;;;;5067822;28;20233;-60
2023/05/07 13:19:22;;;;;;;1.05;0.82;;;;;;;;;;5068302;28;20199;-60
2023/05/07 13:21:49;;;;;;;1.00;1.00;;;;;;;;;;5065874;28;20210;-60
2023/05/07 13:24:16;;;;;;;0.98;0.98;;;;;;;;;;5067664;28;20352;-59
2023/05/07 13:26:43;;;;;;;0.77;0.77;;;;;;;;;;5070835;28;20199;-58
2023/05/07 13:29:10;;;;;;;0.90;0.90;;;;;;;;;;5068696;28;20270;-59
2023/05/07 13:31:41;;;;;;;0.70;0.70;;;;;;;;;;5061326;28;20222;-59
2023/05/07 13:34:10;;;;;;;0.68;0.68;;;;;;;;;;5068562;28;20214;-58
2023/05/07 13:36:39;;;;;;;0.65;0.65;;;;;;;;;;5056945;28;20254;-59
2023/05/07 13:39:06;;;;;;;0.80;0.80;;;;;;;;;;5066429;28;20203;-59
2023/05/07 13:41:33;;;;;;;0.93;0.93;;;;;;;;;;5067483;28;20245;-60
2023/05/07 13:44:00;;;;;;;0.88;0.88;;;;;;;;;;5066839;28;20202;-59
2023/05/07 13:46:27;;;;;;;0.73;0.70;;;;;;;;;;5066729;28;20622;-59
2023/05/07 13:48:55;;;;;;;0.70;0.70;;;;;;;;;;5072104;28;20199;-59
2023/05/07 13:51:25;;;;;;;2.70;0.82;;;;;;;;;;5066772;28;20210;-59
2023/05/07 13:53:54;;;;;;;0.80;0.80;;;;;;;;;;5067491;28;20628;-59
2023/05/07 13:56:21;;;;;;;0.65;0.65;;;;;;;;;;5067411;28;20258;-60
2023/05/07 13:58:48;;;;;;;0.70;0.70;;;;;;;;;;5063199;28;20227;-59
2023/05/07 14:01:15;;;;;;;1.65;1.02;;;;;;;;;;5065254;28;20207;-59
2023/05/07 14:03:42;;;;;;;0.90;0.90;;;;;;;;;;5067796;28;20211;-61
2023/05/07 14:06:09;;;;;;;0.70;0.70;;;;;;;;;;5065688;28;20685;-59
2023/05/07 14:08:37;;;;;;;0.65;0.65;;;;;;;;;;5065818;28;20203;-60
2023/05/07 14:11:04;;;;;;;0.60;0.60;;;;;;;;;;5064658;28;20206;-57
2023/05/07 14:13:37;;;;;;;0.90;0.90;;;;;;;;;;5067163;28;20206;-60
2023/05/07 14:16:05;;;;;;;0.77;0.77;;;;;;;;;;5064005;28;20226;-59
2023/05/07 14:18:33;;;;;;;0.70;0.70;;;;;;;;;;5067372;28;20259;-59
2023/05/07 14:21:00;;;;;;;1.00;1.00;;;;;;;;;;5067737;28;20207;-59
2023/05/07 14:23:27;;;;;;;0.95;0.95;;;;;;;;;;5066664;28;20701;-59
2023/05/07 14:25:57;;;;;;;1.10;1.10;;;;;;;;;;5066688;28;20203;-60
2023/05/07 14:28:24;;;;;;;1.10;1.10;;;;;;;;;;5063210;28;20214;-58
2023/05/07 14:30:51;;;;;;;0.82;0.82;;;;;;;;;;5064684;28;20665;-58
2023/05/07 14:33:18;;;;;;;1.33;1.30;;;;;;;;;;5066095;28;20272;-58
2023/05/07 14:35:48;;;;;;;3.75;2.08;;;;;;;;;;5066420;28;20206;-57
2023/05/07 14:38:15;;;;;;;1.15;1.15;;;;;;;;;;5066829;28;20678;-58
2023/05/07 14:40:42;;;;;;;1.00;1.00;;;;;;;;;;5066539;28;20342;-57
2023/05/07 14:43:10;;;;;;;1.17;0.95;;;;;;;;;;5066079;28;20199;-58
2023/05/07 14:45:38;;;;;;;1.20;1.20;;;;;;;;;;5065877;28;20211;-58
2023/05/07 14:48:05;;;;;;;1.90;1.60;;;;;;;;;;5066011;28;20221;-58